sensor_id;sensor_type;location;lat;lon;timestamp;P1;durP1;ratioP1;P2;durP2;ratioP2
21326;SDS011;10822;51.532;6.770;2023-04-03T00:00:41;6.78;;;3.40;;
21326;SDS011;10822;51.532;6.770;2023-04-03T00:03:07;6.55;;;3.40;;
21326;SDS011;10822;51.532;6.770;2023-04-03T00:05:33;6.32;;;3.50;;
21326;SDS011;10822;51.532;6.770;2023-04-03T00:07:59;4.43;;;3.10;;
21326;SDS011;10822;51.532;6.770;2023-04-03T00:10:27;6.13;;;3.13;;
21326;SDS011;10822;51.532;6.770;2023-04-03T00:12:53;4.90;;;3.08;;
21326;SDS011;10822;51.532;6.770;2023-04-03T00:15:19;5.43;;;3.13;;
21326;SDS011;10822;51.532;6.770;2023-04-03T00:17:45;5.20;;;3.42;;
21326;SDS011;10822;51.532;6.770;2023-04-03T00:20:11;4.45;;;3.28;;
21326;SDS011;10822;51.532;6.770;2023-04-03T00:22:37;7.22;;;3.38;;
21326;SDS011;10822;51.532;6.770;2023-04-03T00:25:03;6.40;;;3.45;;
21326;SDS011;10822;51.532;6.770;2023-04-03T00:27:29;4.32;;;3.28;;
21326;SDS011;10822;51.532;6.770;2023-04-03T00:29:55;6.03;;;3.17;;
21326;SDS011;10822;51.532;6.770;2023-04-03T00:32:21;6.25;;;3.22;;
21326;SDS011;10822;51.532;6.770;2023-04-03T00:34:47;5.15;;;2.95;;
21326;SDS011;10822;51.532;6.770;2023-04-03T00:37:13;5.35;;;3.40;;
21326;SDS011;10822;51.532;6.770;2023-04-03T00:39:39;5.22;;;2.97;;
21326;SDS011;10822;51.532;6.770;2023-04-03T00:42:05;6.93;;;3.50;;
21326;SDS011;10822;51.532;6.770;2023-04-03T00:47:00;5.53;;;3.38;;
21326;SDS011;10822;51.532;6.770;2023-04-03T00:49:27;4.38;;;2.90;;
21326;SDS011;10822;51.532;6.770;2023-04-03T00:51:53;4.90;;;3.08;;
21326;SDS011;10822;51.532;6.770;2023-04-03T00:54:20;5.45;;;3.10;;
21326;SDS011;10822;51.532;6.770;2023-04-03T00:56:46;5.55;;;3.28;;
21326;SDS011;10822;51.532;6.770;2023-04-03T00:59:14;4.68;;;3.20;;
21326;SDS011;10822;51.532;6.770;2023-04-03T01:01:42;3.58;;;2.78;;
21326;SDS011;10822;51.532;6.770;2023-04-03T01:06:53;5.65;;;2.90;;
21326;SDS011;10822;51.532;6.770;2023-04-03T01:09:21;5.25;;;2.88;;
21326;SDS011;10822;51.532;6.770;2023-04-03T01:11:47;4.28;;;2.90;;
21326;SDS011;10822;51.532;6.770;2023-04-03T01:14:13;3.97;;;3.05;;
21326;SDS011;10822;51.532;6.770;2023-04-03T01:16:39;4.65;;;2.95;;
21326;SDS011;10822;51.532;6.770;2023-04-03T01:19:06;5.05;;;2.92;;
21326;SDS011;10822;51.532;6.770;2023-04-03T01:26:45;4.28;;;2.80;;
21326;SDS011;10822;51.532;6.770;2023-04-03T01:29:11;5.45;;;3.00;;
21326;SDS011;10822;51.532;6.770;2023-04-03T01:34:03;5.97;;;3.10;;
21326;SDS011;10822;51.532;6.770;2023-04-03T01:36:29;4.45;;;2.70;;
21326;SDS011;10822;51.532;6.770;2023-04-03T01:38:56;6.28;;;2.92;;
21326;SDS011;10822;51.532;6.770;2023-04-03T01:41:24;6.85;;;4.05;;
21326;SDS011;10822;51.532;6.770;2023-04-03T01:43:50;6.05;;;4.00;;
21326;SDS011;10822;51.532;6.770;2023-04-03T01:46:17;5.75;;;3.55;;
21326;SDS011;10822;51.532;6.770;2023-04-03T01:48:43;6.20;;;3.78;;
21326;SDS011;10822;51.532;6.770;2023-04-03T01:51:09;5.95;;;3.33;;
21326;SDS011;10822;51.532;6.770;2023-04-03T01:53:35;3.38;;;2.50;;
21326;SDS011;10822;51.532;6.770;2023-04-03T01:56:01;3.80;;;2.75;;
21326;SDS011;10822;51.532;6.770;2023-04-03T01:58:27;4.03;;;2.35;;
21326;SDS011;10822;51.532;6.770;2023-04-03T02:00:53;3.92;;;2.33;;
21326;SDS011;10822;51.532;6.770;2023-04-03T02:03:20;3.47;;;2.20;;
21326;SDS011;10822;51.532;6.770;2023-04-03T02:05:46;5.53;;;2.45;;
21326;SDS011;10822;51.532;6.770;2023-04-03T02:08:12;6.38;;;2.38;;
21326;SDS011;10822;51.532;6.770;2023-04-03T02:10:38;5.07;;;2.58;;
21326;SDS011;10822;51.532;6.770;2023-04-03T02:13:04;5.70;;;2.45;;
21326;SDS011;10822;51.532;6.770;2023-04-03T02:15:30;4.32;;;2.28;;
21326;SDS011;10822;51.532;6.770;2023-04-03T02:17:56;6.47;;;2.38;;
21326;SDS011;10822;51.532;6.770;2023-04-03T02:20:22;7.50;;;2.60;;
21326;SDS011;10822;51.532;6.770;2023-04-03T02:22:48;4.93;;;2.58;;
21326;SDS011;10822;51.532;6.770;2023-04-03T02:25:14;5.75;;;2.35;;
21326;SDS011;10822;51.532;6.770;2023-04-03T02:27:42;6.30;;;2.42;;
21326;SDS011;10822;51.532;6.770;2023-04-03T02:30:08;4.22;;;2.30;;
21326;SDS011;10822;51.532;6.770;2023-04-03T02:32:35;2.85;;;2.00;;
21326;SDS011;10822;51.532;6.770;2023-04-03T02:35:01;4.18;;;1.80;;
21326;SDS011;10822;51.532;6.770;2023-04-03T02:37:27;4.93;;;2.05;;
21326;SDS011;10822;51.532;6.770;2023-04-03T02:39:53;3.00;;;2.08;;
21326;SDS011;10822;51.532;6.770;2023-04-03T02:42:19;5.90;;;2.50;;
21326;SDS011;10822;51.532;6.770;2023-04-03T02:44:45;4.40;;;2.03;;
21326;SDS011;10822;51.532;6.770;2023-04-03T02:47:11;5.72;;;2.00;;
21326;SDS011;10822;51.532;6.770;2023-04-03T02:49:37;3.58;;;1.95;;
21326;SDS011;10822;51.532;6.770;2023-04-03T02:52:03;4.18;;;1.98;;
21326;SDS011;10822;51.532;6.770;2023-04-03T02:54:29;6.43;;;1.90;;
21326;SDS011;10822;51.532;6.770;2023-04-03T02:56:56;4.53;;;1.67;;
21326;SDS011;10822;51.532;6.770;2023-04-03T02:59:22;5.00;;;2.00;;
21326;SDS011;10822;51.532;6.770;2023-04-03T03:01:48;4.25;;;2.08;;
21326;SDS011;10822;51.532;6.770;2023-04-03T03:04:14;3.25;;;1.60;;
21326;SDS011;10822;51.532;6.770;2023-04-03T03:06:40;5.25;;;1.90;;
21326;SDS011;10822;51.532;6.770;2023-04-03T03:09:07;3.70;;;1.55;;
21326;SDS011;10822;51.532;6.770;2023-04-03T03:11:33;6.55;;;1.80;;
21326;SDS011;10822;51.532;6.770;2023-04-03T03:13:59;4.40;;;1.60;;
21326;SDS011;10822;51.532;6.770;2023-04-03T03:16:25;6.40;;;1.67;;
21326;SDS011;10822;51.532;6.770;2023-04-03T03:18:51;5.40;;;1.60;;
21326;SDS011;10822;51.532;6.770;2023-04-03T03:21:17;5.22;;;1.70;;
21326;SDS011;10822;51.532;6.770;2023-04-03T03:23:43;6.20;;;2.15;;
21326;SDS011;10822;51.532;6.770;2023-04-03T03:26:09;6.57;;;3.00;;
21326;SDS011;10822;51.532;6.770;2023-04-03T03:28:36;5.88;;;2.40;;
21326;SDS011;10822;51.532;6.770;2023-04-03T03:31:03;5.25;;;2.45;;
21326;SDS011;10822;51.532;6.770;2023-04-03T03:33:29;5.57;;;2.35;;
21326;SDS011;10822;51.532;6.770;2023-04-03T03:35:55;7.03;;;2.47;;
21326;SDS011;10822;51.532;6.770;2023-04-03T03:38:21;4.40;;;1.85;;
21326;SDS011;10822;51.532;6.770;2023-04-03T03:40:48;2.72;;;1.60;;
21326;SDS011;10822;51.532;6.770;2023-04-03T03:43:14;5.97;;;1.95;;
21326;SDS011;10822;51.532;6.770;2023-04-03T03:45:40;6.13;;;1.75;;
21326;SDS011;10822;51.532;6.770;2023-04-03T03:48:06;2.78;;;1.30;;
21326;SDS011;10822;51.532;6.770;2023-04-03T03:50:32;3.55;;;1.25;;
21326;SDS011;10822;51.532;6.770;2023-04-03T03:52:58;3.78;;;1.40;;
21326;SDS011;10822;51.532;6.770;2023-04-03T03:55:24;4.22;;;1.67;;
21326;SDS011;10822;51.532;6.770;2023-04-03T03:57:51;3.20;;;1.58;;
21326;SDS011;10822;51.532;6.770;2023-04-03T04:00:17;6.05;;;1.77;;
21326;SDS011;10822;51.532;6.770;2023-04-03T04:02:43;3.25;;;1.25;;
21326;SDS011;10822;51.532;6.770;2023-04-03T04:05:09;3.47;;;1.73;;
21326;SDS011;10822;51.532;6.770;2023-04-03T04:07:35;3.40;;;1.42;;
21326;SDS011;10822;51.532;6.770;2023-04-03T04:10:01;2.33;;;1.42;;
21326;SDS011;10822;51.532;6.770;2023-04-03T04:12:27;4.40;;;1.77;;
21326;SDS011;10822;51.532;6.770;2023-04-03T04:14:53;2.28;;;1.40;;
21326;SDS011;10822;51.532;6.770;2023-04-03T04:17:19;4.25;;;1.42;;
21326;SDS011;10822;51.532;6.770;2023-04-03T04:19:45;4.45;;;1.55;;
21326;SDS011;10822;51.532;6.770;2023-04-03T04:22:11;3.17;;;1.40;;
21326;SDS011;10822;51.532;6.770;2023-04-03T04:24:37;5.25;;;1.60;;
21326;SDS011;10822;51.532;6.770;2023-04-03T04:27:03;3.95;;;1.67;;
21326;SDS011;10822;51.532;6.770;2023-04-03T04:29:29;5.57;;;1.67;;
21326;SDS011;10822;51.532;6.770;2023-04-03T04:32:00;6.45;;;2.35;;
21326;SDS011;10822;51.532;6.770;2023-04-03T04:34:26;4.55;;;1.92;;
21326;SDS011;10822;51.532;6.770;2023-04-03T04:36:52;3.58;;;1.80;;
21326;SDS011;10822;51.532;6.770;2023-04-03T04:39:18;3.72;;;2.10;;
21326;SDS011;10822;51.532;6.770;2023-04-03T04:41:43;3.15;;;1.40;;
21326;SDS011;10822;51.532;6.770;2023-04-03T04:44:09;5.10;;;1.67;;
21326;SDS011;10822;51.532;6.770;2023-04-03T04:46:35;5.38;;;1.50;;
21326;SDS011;10822;51.532;6.770;2023-04-03T04:49:01;7.20;;;1.80;;
21326;SDS011;10822;51.532;6.770;2023-04-03T04:51:27;4.88;;;1.80;;
21326;SDS011;10822;51.532;6.770;2023-04-03T04:53:53;6.30;;;2.00;;
21326;SDS011;10822;51.532;6.770;2023-04-03T04:56:19;5.78;;;1.65;;
21326;SDS011;10822;51.532;6.770;2023-04-03T04:58:45;4.28;;;1.85;;
21326;SDS011;10822;51.532;6.770;2023-04-03T05:01:11;6.10;;;2.05;;
21326;SDS011;10822;51.532;6.770;2023-04-03T05:03:37;5.55;;;1.60;;
21326;SDS011;10822;51.532;6.770;2023-04-03T05:06:03;4.82;;;1.77;;
21326;SDS011;10822;51.532;6.770;2023-04-03T05:08:30;4.93;;;1.63;;
21326;SDS011;10822;51.532;6.770;2023-04-03T05:10:56;4.82;;;1.77;;
21326;SDS011;10822;51.532;6.770;2023-04-03T05:13:22;3.15;;;1.50;;
21326;SDS011;10822;51.532;6.770;2023-04-03T05:15:48;7.32;;;1.67;;
21326;SDS011;10822;51.532;6.770;2023-04-03T05:18:14;5.22;;;2.00;;
21326;SDS011;10822;51.532;6.770;2023-04-03T05:20:40;4.82;;;1.67;;
21326;SDS011;10822;51.532;6.770;2023-04-03T05:23:08;4.45;;;1.77;;
21326;SDS011;10822;51.532;6.770;2023-04-03T05:25:36;4.30;;;1.70;;
21326;SDS011;10822;51.532;6.770;2023-04-03T05:28:02;4.25;;;1.52;;
21326;SDS011;10822;51.532;6.770;2023-04-03T05:30:28;6.43;;;1.90;;
21326;SDS011;10822;51.532;6.770;2023-04-03T05:32:54;7.40;;;1.73;;
21326;SDS011;10822;51.532;6.770;2023-04-03T05:35:20;4.70;;;1.63;;
21326;SDS011;10822;51.532;6.770;2023-04-03T05:37:46;6.30;;;1.98;;
21326;SDS011;10822;51.532;6.770;2023-04-03T05:40:12;5.90;;;1.90;;
21326;SDS011;10822;51.532;6.770;2023-04-03T05:42:38;4.57;;;1.90;;
21326;SDS011;10822;51.532;6.770;2023-04-03T05:45:04;5.13;;;1.92;;
21326;SDS011;10822;51.532;6.770;2023-04-03T05:47:31;5.18;;;2.00;;
21326;SDS011;10822;51.532;6.770;2023-04-03T05:49:57;4.97;;;1.65;;
21326;SDS011;10822;51.532;6.770;2023-04-03T05:52:25;3.55;;;1.75;;
21326;SDS011;10822;51.532;6.770;2023-04-03T05:54:52;5.43;;;1.60;;
21326;SDS011;10822;51.532;6.770;2023-04-03T05:57:18;8.15;;;2.03;;
21326;SDS011;10822;51.532;6.770;2023-04-03T05:59:45;4.70;;;1.40;;
21326;SDS011;10822;51.532;6.770;2023-04-03T06:02:12;4.65;;;1.90;;
21326;SDS011;10822;51.532;6.770;2023-04-03T06:04:38;5.88;;;2.17;;
21326;SDS011;10822;51.532;6.770;2023-04-03T06:07:04;3.03;;;1.33;;
21326;SDS011;10822;51.532;6.770;2023-04-03T06:09:30;8.93;;;2.42;;
21326;SDS011;10822;51.532;6.770;2023-04-03T06:11:56;3.95;;;2.10;;
21326;SDS011;10822;51.532;6.770;2023-04-03T06:14:24;4.15;;;1.50;;
21326;SDS011;10822;51.532;6.770;2023-04-03T06:16:50;8.15;;;1.90;;
21326;SDS011;10822;51.532;6.770;2023-04-03T06:19:16;3.00;;;1.40;;
21326;SDS011;10822;51.532;6.770;2023-04-03T06:21:42;5.47;;;1.70;;
21326;SDS011;10822;51.532;6.770;2023-04-03T06:24:09;4.90;;;1.73;;
21326;SDS011;10822;51.532;6.770;2023-04-03T06:26:35;3.75;;;1.67;;
21326;SDS011;10822;51.532;6.770;2023-04-03T06:29:02;10.93;;;2.15;;
21326;SDS011;10822;51.532;6.770;2023-04-03T06:31:28;6.97;;;2.03;;
21326;SDS011;10822;51.532;6.770;2023-04-03T06:33:54;5.78;;;1.85;;
21326;SDS011;10822;51.532;6.770;2023-04-03T06:36:21;8.10;;;1.90;;
21326;SDS011;10822;51.532;6.770;2023-04-03T06:38:47;6.00;;;1.95;;
21326;SDS011;10822;51.532;6.770;2023-04-03T06:41:13;3.55;;;1.55;;
21326;SDS011;10822;51.532;6.770;2023-04-03T06:43:39;5.88;;;1.73;;
21326;SDS011;10822;51.532;6.770;2023-04-03T06:46:05;5.70;;;1.70;;
21326;SDS011;10822;51.532;6.770;2023-04-03T06:48:31;6.18;;;1.83;;
21326;SDS011;10822;51.532;6.770;2023-04-03T06:50:57;4.38;;;1.80;;
21326;SDS011;10822;51.532;6.770;2023-04-03T06:53:23;4.55;;;1.80;;
21326;SDS011;10822;51.532;6.770;2023-04-03T06:55:50;6.63;;;1.85;;
21326;SDS011;10822;51.532;6.770;2023-04-03T06:58:16;5.43;;;1.80;;
21326;SDS011;10822;51.532;6.770;2023-04-03T07:00:42;3.42;;;1.50;;
21326;SDS011;10822;51.532;6.770;2023-04-03T07:03:08;6.45;;;1.70;;
21326;SDS011;10822;51.532;6.770;2023-04-03T07:05:34;3.30;;;1.38;;
21326;SDS011;10822;51.532;6.770;2023-04-03T07:08:00;4.05;;;1.80;;
21326;SDS011;10822;51.532;6.770;2023-04-03T07:10:26;5.57;;;1.85;;
21326;SDS011;10822;51.532;6.770;2023-04-03T07:12:52;4.15;;;1.67;;
21326;SDS011;10822;51.532;6.770;2023-04-03T07:15:18;3.13;;;1.48;;
21326;SDS011;10822;51.532;6.770;2023-04-03T07:17:44;3.45;;;1.27;;
21326;SDS011;10822;51.532;6.770;2023-04-03T07:20:11;7.53;;;1.75;;
21326;SDS011;10822;51.532;6.770;2023-04-03T07:22:37;6.10;;;1.60;;
21326;SDS011;10822;51.532;6.770;2023-04-03T07:25:03;4.40;;;1.40;;
21326;SDS011;10822;51.532;6.770;2023-04-03T07:27:31;3.00;;;1.30;;
21326;SDS011;10822;51.532;6.770;2023-04-03T07:29:58;4.70;;;1.50;;
21326;SDS011;10822;51.532;6.770;2023-04-03T07:32:24;3.85;;;1.20;;
21326;SDS011;10822;51.532;6.770;2023-04-03T07:34:50;3.85;;;1.40;;
21326;SDS011;10822;51.532;6.770;2023-04-03T07:37:16;4.13;;;1.30;;
21326;SDS011;10822;51.532;6.770;2023-04-03T07:39:43;5.20;;;1.50;;
21326;SDS011;10822;51.532;6.770;2023-04-03T07:42:10;3.17;;;1.40;;
21326;SDS011;10822;51.532;6.770;2023-04-03T07:44:37;3.42;;;1.30;;
21326;SDS011;10822;51.532;6.770;2023-04-03T07:47:03;3.65;;;1.65;;
21326;SDS011;10822;51.532;6.770;2023-04-03T07:49:29;4.03;;;1.40;;
21326;SDS011;10822;51.532;6.770;2023-04-03T07:51:55;3.63;;;1.50;;
21326;SDS011;10822;51.532;6.770;2023-04-03T07:54:21;3.15;;;1.30;;
21326;SDS011;10822;51.532;6.770;2023-04-03T07:56:47;6.35;;;1.35;;
21326;SDS011;10822;51.532;6.770;2023-04-03T07:59:13;3.90;;;1.27;;
21326;SDS011;10822;51.532;6.770;2023-04-03T08:01:39;3.80;;;1.25;;
21326;SDS011;10822;51.532;6.770;2023-04-03T08:04:05;2.63;;;1.00;;
21326;SDS011;10822;51.532;6.770;2023-04-03T08:06:31;4.07;;;1.30;;
21326;SDS011;10822;51.532;6.770;2023-04-03T08:09:02;3.63;;;1.40;;
21326;SDS011;10822;51.532;6.770;2023-04-03T08:11:28;4.65;;;1.20;;
21326;SDS011;10822;51.532;6.770;2023-04-03T08:13:55;3.65;;;1.20;;
21326;SDS011;10822;51.532;6.770;2023-04-03T08:16:21;2.75;;;1.52;;
21326;SDS011;10822;51.532;6.770;2023-04-03T08:18:48;3.10;;;1.20;;
21326;SDS011;10822;51.532;6.770;2023-04-03T08:21:14;2.55;;;1.30;;
21326;SDS011;10822;51.532;6.770;2023-04-03T08:23:40;4.47;;;1.40;;
21326;SDS011;10822;51.532;6.770;2023-04-03T08:26:14;3.53;;;1.23;;
21326;SDS011;10822;51.532;6.770;2023-04-03T08:28:40;1.70;;;1.02;;
21326;SDS011;10822;51.532;6.770;2023-04-03T08:31:08;6.32;;;1.55;;
21326;SDS011;10822;51.532;6.770;2023-04-03T08:33:35;3.55;;;1.40;;
21326;SDS011;10822;51.532;6.770;2023-04-03T08:36:05;2.40;;;1.17;;
21326;SDS011;10822;51.532;6.770;2023-04-03T08:38:32;3.72;;;1.70;;
21326;SDS011;10822;51.532;6.770;2023-04-03T08:41:15;3.72;;;1.30;;
21326;SDS011;10822;51.532;6.770;2023-04-03T08:46:11;3.47;;;1.13;;
21326;SDS011;10822;51.532;6.770;2023-04-03T08:48:41;3.05;;;1.27;;
21326;SDS011;10822;51.532;6.770;2023-04-03T08:51:15;3.70;;;1.42;;
21326;SDS011;10822;51.532;6.770;2023-04-03T08:53:43;3.17;;;1.10;;
21326;SDS011;10822;51.532;6.770;2023-04-03T08:56:12;3.28;;;1.27;;
21326;SDS011;10822;51.532;6.770;2023-04-03T08:58:50;1.83;;;0.95;;
21326;SDS011;10822;51.532;6.770;2023-04-03T09:01:19;4.75;;;1.00;;
21326;SDS011;10822;51.532;6.770;2023-04-03T09:03:46;2.95;;;1.30;;
21326;SDS011;10822;51.532;6.770;2023-04-03T09:09:12;1.52;;;0.80;;
21326;SDS011;10822;51.532;6.770;2023-04-03T09:17:00;2.42;;;0.85;;
21326;SDS011;10822;51.532;6.770;2023-04-03T09:24:43;5.60;;;1.17;;
21326;SDS011;10822;51.532;6.770;2023-04-03T09:27:11;2.70;;;0.93;;
21326;SDS011;10822;51.532;6.770;2023-04-03T09:29:41;2.38;;;0.70;;
21326;SDS011;10822;51.532;6.770;2023-04-03T09:32:18;2.88;;;0.82;;
21326;SDS011;10822;51.532;6.770;2023-04-03T09:34:44;1.42;;;0.95;;
21326;SDS011;10822;51.532;6.770;2023-04-03T09:37:11;5.07;;;1.00;;
21326;SDS011;10822;51.532;6.770;2023-04-03T09:39:57;1.65;;;0.77;;
21326;SDS011;10822;51.532;6.770;2023-04-03T09:42:23;1.80;;;0.80;;
21326;SDS011;10822;51.532;6.770;2023-04-03T09:44:57;2.95;;;1.10;;
21326;SDS011;10822;51.532;6.770;2023-04-03T09:47:27;3.35;;;1.10;;
21326;SDS011;10822;51.532;6.770;2023-04-03T09:50:08;2.58;;;1.08;;
21326;SDS011;10822;51.532;6.770;2023-04-03T09:52:35;2.15;;;0.95;;
21326;SDS011;10822;51.532;6.770;2023-04-03T09:55:14;3.72;;;1.10;;
21326;SDS011;10822;51.532;6.770;2023-04-03T09:57:41;3.15;;;1.15;;
21326;SDS011;10822;51.532;6.770;2023-04-03T10:00:20;2.45;;;0.90;;
21326;SDS011;10822;51.532;6.770;2023-04-03T10:02:49;1.00;;;0.68;;
21326;SDS011;10822;51.532;6.770;2023-04-03T10:07:51;1.75;;;0.60;;
21326;SDS011;10822;51.532;6.770;2023-04-03T10:10:19;1.42;;;0.70;;
21326;SDS011;10822;51.532;6.770;2023-04-03T10:12:47;0.98;;;0.80;;
21326;SDS011;10822;51.532;6.770;2023-04-03T10:15:14;2.75;;;0.63;;
21326;SDS011;10822;51.532;6.770;2023-04-03T10:25:16;1.63;;;0.70;;
21326;SDS011;10822;51.532;6.770;2023-04-03T10:40:49;2.53;;;0.80;;
21326;SDS011;10822;51.532;6.770;2023-04-03T10:44:04;1.83;;;0.55;;
21326;SDS011;10822;51.532;6.770;2023-04-03T10:53:55;1.35;;;0.63;;
21326;SDS011;10822;51.532;6.770;2023-04-03T10:56:42;2.13;;;0.95;;
21326;SDS011;10822;51.532;6.770;2023-04-03T11:01:56;2.22;;;0.80;;
21326;SDS011;10822;51.532;6.770;2023-04-03T11:04:22;1.42;;;0.80;;
21326;SDS011;10822;51.532;6.770;2023-04-03T11:06:52;1.67;;;0.68;;
21326;SDS011;10822;51.532;6.770;2023-04-03T11:09:23;2.30;;;0.73;;
21326;SDS011;10822;51.532;6.770;2023-04-03T11:11:51;4.37;;;0.93;;
21326;SDS011;10822;51.532;6.770;2023-04-03T11:14:32;2.30;;;0.95;;
21326;SDS011;10822;51.532;6.770;2023-04-03T11:25:19;1.77;;;0.98;;
21326;SDS011;10822;51.532;6.770;2023-04-03T11:27:49;2.30;;;1.00;;
21326;SDS011;10822;51.532;6.770;2023-04-03T11:30:20;2.47;;;0.77;;
21326;SDS011;10822;51.532;6.770;2023-04-03T11:35:16;1.85;;;0.80;;
21326;SDS011;10822;51.532;6.770;2023-04-03T11:37:47;2.13;;;0.80;;
21326;SDS011;10822;51.532;6.770;2023-04-03T11:42:47;1.63;;;0.75;;
21326;SDS011;10822;51.532;6.770;2023-04-03T11:47:53;1.77;;;0.70;;
21326;SDS011;10822;51.532;6.770;2023-04-03T12:13:41;2.22;;;1.00;;
21326;SDS011;10822;51.532;6.770;2023-04-03T12:16:29;1.10;;;0.70;;
21326;SDS011;10822;51.532;6.770;2023-04-03T12:19:02;1.70;;;1.10;;
21326;SDS011;10822;51.532;6.770;2023-04-03T12:23:56;4.65;;;1.10;;
21326;SDS011;10822;51.532;6.770;2023-04-03T12:26:24;1.42;;;0.70;;
21326;SDS011;10822;51.532;6.770;2023-04-03T12:28:51;1.45;;;0.75;;
21326;SDS011;10822;51.532;6.770;2023-04-03T12:31:18;2.95;;;0.80;;
21326;SDS011;10822;51.532;6.770;2023-04-03T12:36:36;2.42;;;0.80;;
21326;SDS011;10822;51.532;6.770;2023-04-03T12:39:17;1.58;;;0.80;;
21326;SDS011;10822;51.532;6.770;2023-04-03T12:41:50;1.80;;;0.75;;
21326;SDS011;10822;51.532;6.770;2023-04-03T12:44:36;1.55;;;0.90;;
21326;SDS011;10822;51.532;6.770;2023-04-03T12:47:08;1.20;;;0.70;;
21326;SDS011;10822;51.532;6.770;2023-04-03T12:49:42;1.70;;;0.70;;
21326;SDS011;10822;51.532;6.770;2023-04-03T12:54:48;3.03;;;1.10;;
21326;SDS011;10822;51.532;6.770;2023-04-03T12:57:18;2.15;;;0.82;;
21326;SDS011;10822;51.532;6.770;2023-04-03T12:59:45;1.85;;;0.75;;
21326;SDS011;10822;51.532;6.770;2023-04-03T13:02:25;3.05;;;0.77;;
21326;SDS011;10822;51.532;6.770;2023-04-03T13:04:52;3.33;;;0.90;;
21326;SDS011;10822;51.532;6.770;2023-04-03T13:07:23;2.60;;;0.90;;
21326;SDS011;10822;51.532;6.770;2023-04-03T13:10:24;2.95;;;0.85;;
21326;SDS011;10822;51.532;6.770;2023-04-03T13:15:13;2.95;;;0.90;;
21326;SDS011;10822;51.532;6.770;2023-04-03T13:17:40;1.90;;;0.73;;
21326;SDS011;10822;51.532;6.770;2023-04-03T13:20:40;2.35;;;0.90;;
21326;SDS011;10822;51.532;6.770;2023-04-03T13:23:01;2.58;;;1.00;;
21326;SDS011;10822;51.532;6.770;2023-04-03T13:25:30;2.38;;;0.90;;
21326;SDS011;10822;51.532;6.770;2023-04-03T13:27:56;3.83;;;1.10;;
21326;SDS011;10822;51.532;6.770;2023-04-03T13:30:30;2.20;;;1.02;;
21326;SDS011;10822;51.532;6.770;2023-04-03T13:32:59;2.15;;;0.85;;
21326;SDS011;10822;51.532;6.770;2023-04-03T13:35:27;1.42;;;0.95;;
21326;SDS011;10822;51.532;6.770;2023-04-03T13:37:56;1.70;;;0.93;;
21326;SDS011;10822;51.532;6.770;2023-04-03T13:40:23;2.83;;;1.00;;
21326;SDS011;10822;51.532;6.770;2023-04-03T13:42:58;2.55;;;0.88;;
21326;SDS011;10822;51.532;6.770;2023-04-03T13:45:26;1.50;;;0.80;;
21326;SDS011;10822;51.532;6.770;2023-04-03T13:48:05;1.45;;;0.75;;
21326;SDS011;10822;51.532;6.770;2023-04-03T13:50:32;2.40;;;0.98;;
21326;SDS011;10822;51.532;6.770;2023-04-03T13:53:03;3.78;;;1.25;;
21326;SDS011;10822;51.532;6.770;2023-04-03T13:55:30;2.20;;;0.77;;
21326;SDS011;10822;51.532;6.770;2023-04-03T14:00:30;2.20;;;0.80;;
21326;SDS011;10822;51.532;6.770;2023-04-03T14:02:56;1.33;;;0.75;;
21326;SDS011;10822;51.532;6.770;2023-04-03T14:05:23;2.22;;;0.77;;
21326;SDS011;10822;51.532;6.770;2023-04-03T14:07:50;3.05;;;0.80;;
21326;SDS011;10822;51.532;6.770;2023-04-03T14:10:16;3.35;;;1.05;;
21326;SDS011;10822;51.532;6.770;2023-04-03T14:12:42;2.45;;;0.88;;
21326;SDS011;10822;51.532;6.770;2023-04-03T14:15:19;2.30;;;0.80;;
21326;SDS011;10822;51.532;6.770;2023-04-03T14:17:46;1.20;;;0.63;;
21326;SDS011;10822;51.532;6.770;2023-04-03T14:20:16;2.13;;;0.85;;
21326;SDS011;10822;51.532;6.770;2023-04-03T14:22:42;1.38;;;0.80;;
21326;SDS011;10822;51.532;6.770;2023-04-03T14:25:09;2.15;;;0.80;;
21326;SDS011;10822;51.532;6.770;2023-04-03T14:27:37;1.83;;;1.00;;
21326;SDS011;10822;51.532;6.770;2023-04-03T14:30:04;1.63;;;0.68;;
21326;SDS011;10822;51.532;6.770;2023-04-03T14:32:30;2.45;;;0.90;;
21326;SDS011;10822;51.532;6.770;2023-04-03T14:34:56;1.77;;;0.65;;
21326;SDS011;10822;51.532;6.770;2023-04-03T14:37:24;2.97;;;1.00;;
21326;SDS011;10822;51.532;6.770;2023-04-03T14:39:51;3.40;;;0.90;;
21326;SDS011;10822;51.532;6.770;2023-04-03T14:42:28;4.90;;;1.42;;
21326;SDS011;10822;51.532;6.770;2023-04-03T14:44:55;2.28;;;0.90;;
21326;SDS011;10822;51.532;6.770;2023-04-03T14:47:22;2.45;;;1.17;;
21326;SDS011;10822;51.532;6.770;2023-04-03T14:49:49;2.72;;;0.88;;
21326;SDS011;10822;51.532;6.770;2023-04-03T14:52:20;1.70;;;0.80;;
21326;SDS011;10822;51.532;6.770;2023-04-03T14:54:47;2.85;;;1.23;;
21326;SDS011;10822;51.532;6.770;2023-04-03T14:57:13;2.08;;;1.00;;
21326;SDS011;10822;51.532;6.770;2023-04-03T14:59:40;1.13;;;0.73;;
21326;SDS011;10822;51.532;6.770;2023-04-03T15:02:24;1.25;;;0.73;;
21326;SDS011;10822;51.532;6.770;2023-04-03T15:04:51;1.77;;;0.90;;
21326;SDS011;10822;51.532;6.770;2023-04-03T15:07:17;2.13;;;0.98;;
21326;SDS011;10822;51.532;6.770;2023-04-03T15:09:43;2.08;;;0.88;;
21326;SDS011;10822;51.532;6.770;2023-04-03T15:12:09;2.35;;;0.80;;
21326;SDS011;10822;51.532;6.770;2023-04-03T15:14:35;2.13;;;0.80;;
21326;SDS011;10822;51.532;6.770;2023-04-03T15:17:01;1.98;;;0.75;;
21326;SDS011;10822;51.532;6.770;2023-04-03T15:19:28;1.88;;;0.93;;
21326;SDS011;10822;51.532;6.770;2023-04-03T15:21:54;2.45;;;0.90;;
21326;SDS011;10822;51.532;6.770;2023-04-03T15:24:20;2.13;;;1.00;;
21326;SDS011;10822;51.532;6.770;2023-04-03T15:26:46;2.13;;;0.82;;
21326;SDS011;10822;51.532;6.770;2023-04-03T15:29:12;2.80;;;0.80;;
21326;SDS011;10822;51.532;6.770;2023-04-03T15:31:38;2.30;;;0.80;;
21326;SDS011;10822;51.532;6.770;2023-04-03T15:34:04;1.90;;;0.82;;
21326;SDS011;10822;51.532;6.770;2023-04-03T15:36:30;3.90;;;1.00;;
21326;SDS011;10822;51.532;6.770;2023-04-03T15:38:56;2.38;;;1.20;;
21326;SDS011;10822;51.532;6.770;2023-04-03T15:41:22;2.35;;;0.90;;
21326;SDS011;10822;51.532;6.770;2023-04-03T15:43:48;2.60;;;1.23;;
21326;SDS011;10822;51.532;6.770;2023-04-03T15:46:14;1.65;;;0.95;;
21326;SDS011;10822;51.532;6.770;2023-04-03T15:48:40;3.80;;;1.08;;
21326;SDS011;10822;51.532;6.770;2023-04-03T15:51:06;3.92;;;0.98;;
21326;SDS011;10822;51.532;6.770;2023-04-03T15:53:32;1.83;;;0.70;;
21326;SDS011;10822;51.532;6.770;2023-04-03T15:55:58;2.20;;;0.90;;
21326;SDS011;10822;51.532;6.770;2023-04-03T15:58:24;3.63;;;0.85;;
21326;SDS011;10822;51.532;6.770;2023-04-03T16:00:50;2.88;;;0.90;;
21326;SDS011;10822;51.532;6.770;2023-04-03T16:03:17;3.42;;;1.08;;
21326;SDS011;10822;51.532;6.770;2023-04-03T16:05:43;3.33;;;1.00;;
21326;SDS011;10822;51.532;6.770;2023-04-03T16:08:09;1.95;;;0.85;;
21326;SDS011;10822;51.532;6.770;2023-04-03T16:10:36;2.10;;;0.93;;
21326;SDS011;10822;51.532;6.770;2023-04-03T16:13:02;3.95;;;1.10;;
21326;SDS011;10822;51.532;6.770;2023-04-03T16:15:29;1.30;;;1.00;;
21326;SDS011;10822;51.532;6.770;2023-04-03T16:17:55;2.50;;;1.10;;
21326;SDS011;10822;51.532;6.770;2023-04-03T16:20:21;8.68;;;1.90;;
21326;SDS011;10822;51.532;6.770;2023-04-03T16:22:48;3.78;;;1.02;;
21326;SDS011;10822;51.532;6.770;2023-04-03T16:25:14;2.58;;;1.02;;
21326;SDS011;10822;51.532;6.770;2023-04-03T16:27:40;2.72;;;1.15;;
21326;SDS011;10822;51.532;6.770;2023-04-03T16:30:07;2.38;;;1.05;;
21326;SDS011;10822;51.532;6.770;2023-04-03T16:32:33;1.52;;;0.73;;
21326;SDS011;10822;51.532;6.770;2023-04-03T16:34:59;1.90;;;0.95;;
21326;SDS011;10822;51.532;6.770;2023-04-03T16:37:25;2.22;;;1.00;;
21326;SDS011;10822;51.532;6.770;2023-04-03T16:39:52;2.55;;;0.90;;
21326;SDS011;10822;51.532;6.770;2023-04-03T16:42:17;2.90;;;1.23;;
21326;SDS011;10822;51.532;6.770;2023-04-03T16:44:43;2.33;;;0.95;;